Angelica, New York
Current Conditions -  °F | °C
As of 9:56 PM on Friday 28 Nov 2014 (Local Time) from KELZ Reporting Station
Few Clouds Few Clouds  
Wind Chill:   Ceiling: Unl
Heat Index: 18°   Visibility: 10mi
Dew Point:   Wind: 8mph
Humidity: 68%   Direction: 220°SW
Pressure: 30.12"   Gusts: NA
Location:  42.31°N, 78.02°W
Report Text: KELZ 290256Z AUTO 22007KT 10SM FEW090 M08/M13 A3012 RMK AO2 SLP237 T10781128 58005
Loading
Personal Weather Stations






























Interactive Weather Map New forecast layout! Learn more

10-Day Weather Forecast

Advertisements
Track Severe Weather on mobile